sensor_id;sensor_type;location;lat;lon;timestamp;temperature;humidity
28947;DHT22;16052;50.930;5.326;2022-12-07T00:00:29;6.10;99.90
28947;DHT22;16052;50.930;5.326;2022-12-07T00:02:55;6.00;99.90
28947;DHT22;16052;50.930;5.326;2022-12-07T00:05:21;6.10;99.90
28947;DHT22;16052;50.930;5.326;2022-12-07T00:07:46;6.20;99.90
28947;DHT22;16052;50.930;5.326;2022-12-07T00:10:12;6.20;99.90
28947;DHT22;16052;50.930;5.326;2022-12-07T00:12:38;6.30;99.90
28947;DHT22;16052;50.930;5.326;2022-12-07T00:15:04;6.40;99.90
28947;DHT22;16052;50.930;5.326;2022-12-07T00:17:29;6.40;99.90
28947;DHT22;16052;50.930;5.326;2022-12-07T00:19:55;6.40;99.90
28947;DHT22;16052;50.930;5.326;2022-12-07T00:22:21;6.40;99.90
28947;DHT22;16052;50.930;5.326;2022-12-07T00:24:46;6.30;99.90
28947;DHT22;16052;50.930;5.326;2022-12-07T00:27:12;6.20;99.90
28947;DHT22;16052;50.930;5.326;2022-12-07T00:29:37;6.20;99.90
28947;DHT22;16052;50.930;5.326;2022-12-07T00:32:03;6.10;99.90
28947;DHT22;16052;50.930;5.326;2022-12-07T00:34:29;6.10;99.90
28947;DHT22;16052;50.930;5.326;2022-12-07T00:36:55;6.10;99.90
28947;DHT22;16052;50.930;5.326;2022-12-07T00:39:20;6.00;99.90
28947;DHT22;16052;50.930;5.326;2022-12-07T00:41:46;6.10;99.90
28947;DHT22;16052;50.930;5.326;2022-12-07T00:44:12;6.10;99.90
28947;DHT22;16052;50.930;5.326;2022-12-07T00:46:37;6.00;99.90
28947;DHT22;16052;50.930;5.326;2022-12-07T00:49:03;6.10;99.90
28947;DHT22;16052;50.930;5.326;2022-12-07T00:51:29;6.20;99.90
28947;DHT22;16052;50.930;5.326;2022-12-07T00:53:54;6.10;99.90
28947;DHT22;16052;50.930;5.326;2022-12-07T00:56:21;6.10;99.90
28947;DHT22;16052;50.930;5.326;2022-12-07T00:58:55;6.10;99.90
28947;DHT22;16052;50.930;5.326;2022-12-07T01:01:21;6.10;99.90
28947;DHT22;16052;50.930;5.326;2022-12-07T01:03:47;6.10;99.90
28947;DHT22;16052;50.930;5.326;2022-12-07T01:06:17;6.20;99.90
28947;DHT22;16052;50.930;5.326;2022-12-07T01:08:44;6.20;99.90
28947;DHT22;16052;50.930;5.326;2022-12-07T01:11:14;6.20;99.90
28947;DHT22;16052;50.930;5.326;2022-12-07T01:13:40;6.10;99.90
28947;DHT22;16052;50.930;5.326;2022-12-07T01:16:06;6.10;99.90
28947;DHT22;16052;50.930;5.326;2022-12-07T01:18:35;6.20;99.90
28947;DHT22;16052;50.930;5.326;2022-12-07T01:21:11;6.20;99.90
28947;DHT22;16052;50.930;5.326;2022-12-07T01:23:38;6.20;99.90
28947;DHT22;16052;50.930;5.326;2022-12-07T01:26:06;6.00;99.90
28947;DHT22;16052;50.930;5.326;2022-12-07T01:28:32;5.90;99.90
28947;DHT22;16052;50.930;5.326;2022-12-07T01:31:00;5.90;99.90
28947;DHT22;16052;50.930;5.326;2022-12-07T01:33:31;5.90;99.90
28947;DHT22;16052;50.930;5.326;2022-12-07T01:36:07;6.00;99.90
28947;DHT22;16052;50.930;5.326;2022-12-07T01:38:33;5.90;99.90
28947;DHT22;16052;50.930;5.326;2022-12-07T01:41:00;6.00;99.90
28947;DHT22;16052;50.930;5.326;2022-12-07T01:43:28;6.00;99.90
28947;DHT22;16052;50.930;5.326;2022-12-07T01:45:55;6.10;99.90
28947;DHT22;16052;50.930;5.326;2022-12-07T01:48:26;6.10;99.90
28947;DHT22;16052;50.930;5.326;2022-12-07T01:50:54;6.10;99.90
28947;DHT22;16052;50.930;5.326;2022-12-07T01:53:21;6.10;99.90
28947;DHT22;16052;50.930;5.326;2022-12-07T01:55:52;6.30;99.90
28947;DHT22;16052;50.930;5.326;2022-12-07T01:58:18;6.20;99.90
28947;DHT22;16052;50.930;5.326;2022-12-07T02:00:45;6.20;99.90
28947;DHT22;16052;50.930;5.326;2022-12-07T02:03:36;6.10;99.90
28947;DHT22;16052;50.930;5.326;2022-12-07T02:06:04;6.20;99.90
28947;DHT22;16052;50.930;5.326;2022-12-07T02:08:31;6.20;99.90
28947;DHT22;16052;50.930;5.326;2022-12-07T02:10:57;6.20;99.90
28947;DHT22;16052;50.930;5.326;2022-12-07T02:13:25;6.20;99.90
28947;DHT22;16052;50.930;5.326;2022-12-07T02:19:14;6.20;99.90
28947;DHT22;16052;50.930;5.326;2022-12-07T02:22:00;6.20;99.90
28947;DHT22;16052;50.930;5.326;2022-12-07T02:30:07;6.30;99.90
28947;DHT22;16052;50.930;5.326;2022-12-07T02:32:51;6.30;99.90
28947;DHT22;16052;50.930;5.326;2022-12-07T02:35:30;6.30;99.90
28947;DHT22;16052;50.930;5.326;2022-12-07T02:43:55;6.20;99.90
28947;DHT22;16052;50.930;5.326;2022-12-07T02:46:28;6.10;99.90
28947;DHT22;16052;50.930;5.326;2022-12-07T02:48:55;6.10;99.90
28947;DHT22;16052;50.930;5.326;2022-12-07T02:51:22;6.10;99.90
28947;DHT22;16052;50.930;5.326;2022-12-07T02:53:47;6.10;99.90
28947;DHT22;16052;50.930;5.326;2022-12-07T02:59:24;6.10;99.90
28947;DHT22;16052;50.930;5.326;2022-12-07T03:02:18;6.10;99.90
28947;DHT22;16052;50.930;5.326;2022-12-07T03:05:19;6.10;99.90
28947;DHT22;16052;50.930;5.326;2022-12-07T03:10:56;5.90;99.90
28947;DHT22;16052;50.930;5.326;2022-12-07T03:21:42;6.00;99.90
28947;DHT22;16052;50.930;5.326;2022-12-07T03:24:20;5.90;99.90
28947;DHT22;16052;50.930;5.326;2022-12-07T03:26:51;5.90;99.90
28947;DHT22;16052;50.930;5.326;2022-12-07T03:29:32;5.90;99.90
28947;DHT22;16052;50.930;5.326;2022-12-07T03:32:05;6.00;99.90
28947;DHT22;16052;50.930;5.326;2022-12-07T03:34:47;6.00;99.90
28947;DHT22;16052;50.930;5.326;2022-12-07T03:37:34;6.00;99.90
28947;DHT22;16052;50.930;5.326;2022-12-07T03:40:04;6.00;99.90
28947;DHT22;16052;50.930;5.326;2022-12-07T03:42:31;6.00;99.90
28947;DHT22;16052;50.930;5.326;2022-12-07T03:44:58;6.00;99.90
28947;DHT22;16052;50.930;5.326;2022-12-07T03:52:45;5.80;99.90
28947;DHT22;16052;50.930;5.326;2022-12-07T03:55:25;5.90;99.90
28947;DHT22;16052;50.930;5.326;2022-12-07T03:57:55;5.90;99.90
28947;DHT22;16052;50.930;5.326;2022-12-07T04:00:22;6.10;99.90
28947;DHT22;16052;50.930;5.326;2022-12-07T04:02:48;6.20;99.90
28947;DHT22;16052;50.930;5.326;2022-12-07T04:05:16;6.30;99.90
28947;DHT22;16052;50.930;5.326;2022-12-07T04:07:42;6.20;99.90
28947;DHT22;16052;50.930;5.326;2022-12-07T04:10:08;6.20;99.90
28947;DHT22;16052;50.930;5.326;2022-12-07T04:12:33;6.10;99.90
28947;DHT22;16052;50.930;5.326;2022-12-07T04:14:59;6.20;99.90
28947;DHT22;16052;50.930;5.326;2022-12-07T04:17:25;6.20;99.90
28947;DHT22;16052;50.930;5.326;2022-12-07T04:19:50;6.30;99.90
28947;DHT22;16052;50.930;5.326;2022-12-07T04:22:16;6.20;99.90
28947;DHT22;16052;50.930;5.326;2022-12-07T04:24:41;6.30;99.90
28947;DHT22;16052;50.930;5.326;2022-12-07T04:27:07;6.20;99.90
28947;DHT22;16052;50.930;5.326;2022-12-07T04:29:33;6.10;99.90
28947;DHT22;16052;50.930;5.326;2022-12-07T04:31:58;6.10;99.90
28947;DHT22;16052;50.930;5.326;2022-12-07T04:34:24;6.10;99.90
28947;DHT22;16052;50.930;5.326;2022-12-07T04:36:49;6.00;99.90
28947;DHT22;16052;50.930;5.326;2022-12-07T04:41:50;6.00;99.90
28947;DHT22;16052;50.930;5.326;2022-12-07T04:44:16;5.90;99.90
28947;DHT22;16052;50.930;5.326;2022-12-07T04:46:42;5.90;99.90
28947;DHT22;16052;50.930;5.326;2022-12-07T04:49:09;6.00;99.90
28947;DHT22;16052;50.930;5.326;2022-12-07T04:51:35;6.20;99.90
28947;DHT22;16052;50.930;5.326;2022-12-07T04:54:00;6.30;99.90
28947;DHT22;16052;50.930;5.326;2022-12-07T04:56:26;6.10;99.90
28947;DHT22;16052;50.930;5.326;2022-12-07T04:58:53;6.10;99.90
28947;DHT22;16052;50.930;5.326;2022-12-07T05:01:19;6.30;99.90
28947;DHT22;16052;50.930;5.326;2022-12-07T05:03:45;6.30;99.90
28947;DHT22;16052;50.930;5.326;2022-12-07T05:06:11;6.40;99.90
28947;DHT22;16052;50.930;5.326;2022-12-07T05:08:38;6.40;99.90
28947;DHT22;16052;50.930;5.326;2022-12-07T05:11:05;6.20;99.90
28947;DHT22;16052;50.930;5.326;2022-12-07T05:13:31;6.20;99.90
28947;DHT22;16052;50.930;5.326;2022-12-07T05:15:57;6.10;99.90
28947;DHT22;16052;50.930;5.326;2022-12-07T05:18:23;6.10;99.90
28947;DHT22;16052;50.930;5.326;2022-12-07T05:20:49;6.00;99.90
28947;DHT22;16052;50.930;5.326;2022-12-07T05:23:16;6.00;99.90
28947;DHT22;16052;50.930;5.326;2022-12-07T05:25:42;6.00;99.90
28947;DHT22;16052;50.930;5.326;2022-12-07T05:28:07;6.00;99.90
28947;DHT22;16052;50.930;5.326;2022-12-07T05:30:33;6.00;99.90
28947;DHT22;16052;50.930;5.326;2022-12-07T05:32:59;6.00;99.90
28947;DHT22;16052;50.930;5.326;2022-12-07T05:35:24;6.00;99.90
28947;DHT22;16052;50.930;5.326;2022-12-07T05:37:50;6.00;99.90
28947;DHT22;16052;50.930;5.326;2022-12-07T05:40:16;5.90;99.90
28947;DHT22;16052;50.930;5.326;2022-12-07T05:42:44;5.80;99.90
28947;DHT22;16052;50.930;5.326;2022-12-07T05:45:10;5.90;99.90
28947;DHT22;16052;50.930;5.326;2022-12-07T05:47:36;5.70;99.90
28947;DHT22;16052;50.930;5.326;2022-12-07T05:50:03;5.70;99.90
28947;DHT22;16052;50.930;5.326;2022-12-07T05:52:29;5.70;99.90
28947;DHT22;16052;50.930;5.326;2022-12-07T05:54:54;5.90;99.90
28947;DHT22;16052;50.930;5.326;2022-12-07T05:57:20;5.80;99.90
28947;DHT22;16052;50.930;5.326;2022-12-07T05:59:46;5.90;99.90
28947;DHT22;16052;50.930;5.326;2022-12-07T06:02:13;6.00;99.90
28947;DHT22;16052;50.930;5.326;2022-12-07T06:04:41;5.90;99.90
28947;DHT22;16052;50.930;5.326;2022-12-07T06:07:08;5.90;99.90
28947;DHT22;16052;50.930;5.326;2022-12-07T06:09:34;6.00;99.90
28947;DHT22;16052;50.930;5.326;2022-12-07T06:12:00;6.00;99.90
28947;DHT22;16052;50.930;5.326;2022-12-07T06:14:45;6.00;99.90
28947;DHT22;16052;50.930;5.326;2022-12-07T06:17:11;6.00;99.90
28947;DHT22;16052;50.930;5.326;2022-12-07T06:19:38;6.00;99.90
28947;DHT22;16052;50.930;5.326;2022-12-07T06:22:04;6.00;99.90
28947;DHT22;16052;50.930;5.326;2022-12-07T06:24:30;6.00;99.90
28947;DHT22;16052;50.930;5.326;2022-12-07T06:26:56;6.00;99.90
28947;DHT22;16052;50.930;5.326;2022-12-07T06:29:22;6.00;99.90
28947;DHT22;16052;50.930;5.326;2022-12-07T06:31:48;6.00;99.90
28947;DHT22;16052;50.930;5.326;2022-12-07T06:34:19;6.20;99.90
28947;DHT22;16052;50.930;5.326;2022-12-07T06:36:45;6.10;99.90
28947;DHT22;16052;50.930;5.326;2022-12-07T06:39:12;6.10;99.90
28947;DHT22;16052;50.930;5.326;2022-12-07T06:41:38;6.60;99.90
28947;DHT22;16052;50.930;5.326;2022-12-07T06:44:05;6.00;99.90
28947;DHT22;16052;50.930;5.326;2022-12-07T06:46:31;5.80;99.90
28947;DHT22;16052;50.930;5.326;2022-12-07T06:48:57;5.80;99.90
28947;DHT22;16052;50.930;5.326;2022-12-07T06:51:22;5.90;99.90
28947;DHT22;16052;50.930;5.326;2022-12-07T06:53:48;6.00;99.90
28947;DHT22;16052;50.930;5.326;2022-12-07T06:56:14;6.10;99.90
28947;DHT22;16052;50.930;5.326;2022-12-07T06:58:40;6.20;99.90
28947;DHT22;16052;50.930;5.326;2022-12-07T07:01:13;6.00;99.90
28947;DHT22;16052;50.930;5.326;2022-12-07T07:03:39;6.00;99.90
28947;DHT22;16052;50.930;5.326;2022-12-07T07:06:05;6.00;99.90
28947;DHT22;16052;50.930;5.326;2022-12-07T07:08:31;6.20;99.90
28947;DHT22;16052;50.930;5.326;2022-12-07T07:10:57;6.10;99.90
28947;DHT22;16052;50.930;5.326;2022-12-07T07:13:22;6.10;99.90
28947;DHT22;16052;50.930;5.326;2022-12-07T07:15:48;6.20;99.90
28947;DHT22;16052;50.930;5.326;2022-12-07T07:18:14;6.10;99.90
28947;DHT22;16052;50.930;5.326;2022-12-07T07:20:39;6.10;99.90
28947;DHT22;16052;50.930;5.326;2022-12-07T07:23:05;6.00;99.90
28947;DHT22;16052;50.930;5.326;2022-12-07T07:25:31;6.20;99.90
28947;DHT22;16052;50.930;5.326;2022-12-07T07:27:57;6.20;99.90
28947;DHT22;16052;50.930;5.326;2022-12-07T07:30:23;6.10;99.90
28947;DHT22;16052;50.930;5.326;2022-12-07T07:32:49;6.10;99.90
28947;DHT22;16052;50.930;5.326;2022-12-07T07:35:15;6.30;99.90
28947;DHT22;16052;50.930;5.326;2022-12-07T07:37:41;6.20;99.90
28947;DHT22;16052;50.930;5.326;2022-12-07T07:40:08;6.50;99.90
28947;DHT22;16052;50.930;5.326;2022-12-07T07:42:34;6.30;99.90
28947;DHT22;16052;50.930;5.326;2022-12-07T07:44:59;6.30;99.90
28947;DHT22;16052;50.930;5.326;2022-12-07T07:47:25;6.20;99.90
28947;DHT22;16052;50.930;5.326;2022-12-07T07:49:51;6.30;99.90
28947;DHT22;16052;50.930;5.326;2022-12-07T07:52:16;6.00;99.90
28947;DHT22;16052;50.930;5.326;2022-12-07T07:54:42;6.00;99.90
28947;DHT22;16052;50.930;5.326;2022-12-07T07:57:08;5.90;99.90
28947;DHT22;16052;50.930;5.326;2022-12-07T07:59:33;5.90;99.90
28947;DHT22;16052;50.930;5.326;2022-12-07T08:01:59;5.80;99.90
28947;DHT22;16052;50.930;5.326;2022-12-07T08:04:24;5.80;99.90
28947;DHT22;16052;50.930;5.326;2022-12-07T08:06:51;5.80;99.90
28947;DHT22;16052;50.930;5.326;2022-12-07T08:09:16;5.70;99.90
28947;DHT22;16052;50.930;5.326;2022-12-07T08:11:42;5.80;99.90
28947;DHT22;16052;50.930;5.326;2022-12-07T08:14:09;5.90;99.90
28947;DHT22;16052;50.930;5.326;2022-12-07T08:16:34;6.10;99.90
28947;DHT22;16052;50.930;5.326;2022-12-07T08:19:00;6.30;99.90
28947;DHT22;16052;50.930;5.326;2022-12-07T08:21:26;6.40;99.90
28947;DHT22;16052;50.930;5.326;2022-12-07T08:23:51;6.60;99.90
28947;DHT22;16052;50.930;5.326;2022-12-07T08:26:17;6.90;99.90
28947;DHT22;16052;50.930;5.326;2022-12-07T08:28:43;7.20;99.90
28947;DHT22;16052;50.930;5.326;2022-12-07T08:31:12;7.00;99.90
28947;DHT22;16052;50.930;5.326;2022-12-07T08:33:39;7.10;99.90
28947;DHT22;16052;50.930;5.326;2022-12-07T08:36:07;7.20;99.90
28947;DHT22;16052;50.930;5.326;2022-12-07T08:38:37;7.10;99.90
28947;DHT22;16052;50.930;5.326;2022-12-07T08:41:04;7.10;99.90
28947;DHT22;16052;50.930;5.326;2022-12-07T08:43:30;6.90;99.90
28947;DHT22;16052;50.930;5.326;2022-12-07T08:48:41;7.20;99.90
28947;DHT22;16052;50.930;5.326;2022-12-07T08:51:09;7.20;99.90
28947;DHT22;16052;50.930;5.326;2022-12-07T08:53:37;7.30;99.90
28947;DHT22;16052;50.930;5.326;2022-12-07T08:56:04;7.30;99.90
28947;DHT22;16052;50.930;5.326;2022-12-07T08:58:30;7.20;99.90
28947;DHT22;16052;50.930;5.326;2022-12-07T09:00:55;7.00;99.90
28947;DHT22;16052;50.930;5.326;2022-12-07T09:03:21;6.80;99.90
28947;DHT22;16052;50.930;5.326;2022-12-07T09:05:47;6.80;99.90
28947;DHT22;16052;50.930;5.326;2022-12-07T09:08:13;6.70;99.90
28947;DHT22;16052;50.930;5.326;2022-12-07T09:10:38;6.60;99.90
28947;DHT22;16052;50.930;5.326;2022-12-07T09:13:04;6.50;99.90
28947;DHT22;16052;50.930;5.326;2022-12-07T09:15:30;6.60;99.90
28947;DHT22;16052;50.930;5.326;2022-12-07T09:17:56;6.70;99.90
28947;DHT22;16052;50.930;5.326;2022-12-07T09:20:22;6.60;99.90
28947;DHT22;16052;50.930;5.326;2022-12-07T09:22:48;6.50;99.90
28947;DHT22;16052;50.930;5.326;2022-12-07T09:25:14;6.50;99.90
28947;DHT22;16052;50.930;5.326;2022-12-07T09:27:39;6.40;99.90
28947;DHT22;16052;50.930;5.326;2022-12-07T09:30:06;6.50;99.90
28947;DHT22;16052;50.930;5.326;2022-12-07T09:32:32;6.50;99.90
28947;DHT22;16052;50.930;5.326;2022-12-07T09:34:58;6.70;99.90
28947;DHT22;16052;50.930;5.326;2022-12-07T09:37:23;6.60;99.90
28947;DHT22;16052;50.930;5.326;2022-12-07T09:39:49;6.50;99.90
28947;DHT22;16052;50.930;5.326;2022-12-07T09:42:36;6.50;99.90
28947;DHT22;16052;50.930;5.326;2022-12-07T09:45:05;6.40;99.90
28947;DHT22;16052;50.930;5.326;2022-12-07T09:47:32;6.50;99.90
28947;DHT22;16052;50.930;5.326;2022-12-07T09:50:16;6.60;99.90
28947;DHT22;16052;50.930;5.326;2022-12-07T09:52:44;6.70;99.90
28947;DHT22;16052;50.930;5.326;2022-12-07T09:55:16;6.70;99.90
28947;DHT22;16052;50.930;5.326;2022-12-07T09:57:45;6.70;99.90
28947;DHT22;16052;50.930;5.326;2022-12-07T10:00:19;6.70;99.90
28947;DHT22;16052;50.930;5.326;2022-12-07T10:03:00;6.80;99.90
28947;DHT22;16052;50.930;5.326;2022-12-07T10:05:46;6.90;99.90
28947;DHT22;16052;50.930;5.326;2022-12-07T10:08:14;6.80;99.90
28947;DHT22;16052;50.930;5.326;2022-12-07T10:10:43;6.80;99.90
28947;DHT22;16052;50.930;5.326;2022-12-07T10:13:11;7.00;99.90
28947;DHT22;16052;50.930;5.326;2022-12-07T10:15:58;7.10;99.90
28947;DHT22;16052;50.930;5.326;2022-12-07T10:18:36;7.20;99.90
28947;DHT22;16052;50.930;5.326;2022-12-07T10:21:12;7.30;99.90
28947;DHT22;16052;50.930;5.326;2022-12-07T10:23:42;7.30;99.90
28947;DHT22;16052;50.930;5.326;2022-12-07T10:28:59;7.40;99.90
28947;DHT22;16052;50.930;5.326;2022-12-07T10:31:26;7.30;99.90
28947;DHT22;16052;50.930;5.326;2022-12-07T10:33:54;7.20;99.90
28947;DHT22;16052;50.930;5.326;2022-12-07T10:36:35;7.10;99.90
28947;DHT22;16052;50.930;5.326;2022-12-07T10:39:14;7.10;99.90
28947;DHT22;16052;50.930;5.326;2022-12-07T10:41:58;7.10;99.90
28947;DHT22;16052;50.930;5.326;2022-12-07T10:44:34;7.10;99.90
28947;DHT22;16052;50.930;5.326;2022-12-07T10:47:36;7.00;99.90
28947;DHT22;16052;50.930;5.326;2022-12-07T10:58:06;7.00;99.90
28947;DHT22;16052;50.930;5.326;2022-12-07T11:03:50;7.00;99.90
28947;DHT22;16052;50.930;5.326;2022-12-07T11:11:51;7.10;99.90
28947;DHT22;16052;50.930;5.326;2022-12-07T11:14:43;7.10;99.90
28947;DHT22;16052;50.930;5.326;2022-12-07T11:17:17;7.10;99.90
28947;DHT22;16052;50.930;5.326;2022-12-07T11:31:58;7.00;99.90
28947;DHT22;16052;50.930;5.326;2022-12-07T11:34:25;7.10;99.90
28947;DHT22;16052;50.930;5.326;2022-12-07T11:36:54;7.20;99.90
28947;DHT22;16052;50.930;5.326;2022-12-07T11:39:35;7.30;99.90
28947;DHT22;16052;50.930;5.326;2022-12-07T11:42:19;7.40;99.90
28947;DHT22;16052;50.930;5.326;2022-12-07T11:44:58;7.30;99.90
28947;DHT22;16052;50.930;5.326;2022-12-07T11:50:42;7.10;99.90
28947;DHT22;16052;50.930;5.326;2022-12-07T11:55:46;7.20;99.90
28947;DHT22;16052;50.930;5.326;2022-12-07T12:04:23;7.20;99.90
28947;DHT22;16052;50.930;5.326;2022-12-07T12:06:51;7.10;99.90
28947;DHT22;16052;50.930;5.326;2022-12-07T12:09:20;7.20;99.90
28947;DHT22;16052;50.930;5.326;2022-12-07T12:14:48;7.20;99.90
28947;DHT22;16052;50.930;5.326;2022-12-07T12:20:15;7.20;99.90
28947;DHT22;16052;50.930;5.326;2022-12-07T12:22:46;7.30;99.90
28947;DHT22;16052;50.930;5.326;2022-12-07T12:25:23;7.40;99.90
28947;DHT22;16052;50.930;5.326;2022-12-07T12:27:50;7.40;99.90
28947;DHT22;16052;50.930;5.326;2022-12-07T12:30:34;7.40;99.90
28947;DHT22;16052;50.930;5.326;2022-12-07T12:33:06;7.40;99.90
28947;DHT22;16052;50.930;5.326;2022-12-07T12:35:38;7.50;99.90
28947;DHT22;16052;50.930;5.326;2022-12-07T12:38:31;7.50;99.90
28947;DHT22;16052;50.930;5.326;2022-12-07T12:40:59;7.60;99.90
28947;DHT22;16052;50.930;5.326;2022-12-07T12:43:49;7.50;99.90
28947;DHT22;16052;50.930;5.326;2022-12-07T12:54:32;7.40;99.90
28947;DHT22;16052;50.930;5.326;2022-12-07T12:57:06;7.30;99.90
28947;DHT22;16052;50.930;5.326;2022-12-07T13:02:35;7.20;99.90
28947;DHT22;16052;50.930;5.326;2022-12-07T13:29:17;7.30;99.90
28947;DHT22;16052;50.930;5.326;2022-12-07T13:34:37;7.30;99.90
28947;DHT22;16052;50.930;5.326;2022-12-07T13:37:24;7.30;99.90
28947;DHT22;16052;50.930;5.326;2022-12-07T13:42:27;7.40;99.90
28947;DHT22;16052;50.930;5.326;2022-12-07T13:44:54;7.40;99.90
28947;DHT22;16052;50.930;5.326;2022-12-07T13:47:28;7.50;99.90
28947;DHT22;16052;50.930;5.326;2022-12-07T13:49:57;7.60;99.90
28947;DHT22;16052;50.930;5.326;2022-12-07T13:52:24;7.60;99.90
28947;DHT22;16052;50.930;5.326;2022-12-07T13:54:57;7.70;99.90
28947;DHT22;16052;50.930;5.326;2022-12-07T13:57:25;7.80;99.90
28947;DHT22;16052;50.930;5.326;2022-12-07T13:59:51;7.80;99.90
28947;DHT22;16052;50.930;5.326;2022-12-07T14:02:29;7.60;99.90
28947;DHT22;16052;50.930;5.326;2022-12-07T14:07:40;7.60;99.90
28947;DHT22;16052;50.930;5.326;2022-12-07T14:10:33;7.70;99.90
28947;DHT22;16052;50.930;5.326;2022-12-07T14:13:00;7.80;99.90
28947;DHT22;16052;50.930;5.326;2022-12-07T14:15:29;7.50;99.90
28947;DHT22;16052;50.930;5.326;2022-12-07T14:17:56;7.40;99.90
28947;DHT22;16052;50.930;5.326;2022-12-07T14:20:35;7.30;99.90
28947;DHT22;16052;50.930;5.326;2022-12-07T14:23:02;7.30;99.90
28947;DHT22;16052;50.930;5.326;2022-12-07T14:25:46;7.30;99.90
28947;DHT22;16052;50.930;5.326;2022-12-07T14:28:29;7.30;99.90
28947;DHT22;16052;50.930;5.326;2022-12-07T14:30:55;7.40;99.90
28947;DHT22;16052;50.930;5.326;2022-12-07T14:33:21;7.40;99.90
28947;DHT22;16052;50.930;5.326;2022-12-07T14:35:47;7.30;99.90
28947;DHT22;16052;50.930;5.326;2022-12-07T14:38:13;7.40;99.90
28947;DHT22;16052;50.930;5.326;2022-12-07T14:40:38;7.50;99.90
28947;DHT22;16052;50.930;5.326;2022-12-07T14:43:08;7.40;99.90
28947;DHT22;16052;50.930;5.326;2022-12-07T14:45:35;7.40;99.90
28947;DHT22;16052;50.930;5.326;2022-12-07T14:48:02;7.40;99.90
28947;DHT22;16052;50.930;5.326;2022-12-07T14:50:28;7.40;99.90
28947;DHT22;16052;50.930;5.326;2022-12-07T14:53:01;7.50;99.90
28947;DHT22;16052;50.930;5.326;2022-12-07T14:55:31;7.50;99.90
28947;DHT22;16052;50.930;5.326;2022-12-07T14:57:57;7.50;99.90
28947;DHT22;16052;50.930;5.326;2022-12-07T15:00:25;7.50;99.90
28947;DHT22;16052;50.930;5.326;2022-12-07T15:02:51;7.40;99.90
28947;DHT22;16052;50.930;5.326;2022-12-07T15:05:18;7.70;99.90
28947;DHT22;16052;50.930;5.326;2022-12-07T15:07:45;7.60;99.90
28947;DHT22;16052;50.930;5.326;2022-12-07T15:10:30;7.40;99.90
28947;DHT22;16052;50.930;5.326;2022-12-07T15:13:02;7.50;99.90
28947;DHT22;16052;50.930;5.326;2022-12-07T15:15:48;7.40;99.90
28947;DHT22;16052;50.930;5.326;2022-12-07T15:18:14;7.50;99.90
28947;DHT22;16052;50.930;5.326;2022-12-07T15:20:40;7.30;99.90
28947;DHT22;16052;50.930;5.326;2022-12-07T15:23:06;7.20;99.90
28947;DHT22;16052;50.930;5.326;2022-12-07T15:25:32;7.70;99.90
28947;DHT22;16052;50.930;5.326;2022-12-07T15:27:58;7.40;99.90
28947;DHT22;16052;50.930;5.326;2022-12-07T15:30:24;8.70;99.90
28947;DHT22;16052;50.930;5.326;2022-12-07T15:32:54;7.40;99.90
28947;DHT22;16052;50.930;5.326;2022-12-07T15:35:20;7.50;99.90
28947;DHT22;16052;50.930;5.326;2022-12-07T15:37:46;7.40;99.90
28947;DHT22;16052;50.930;5.326;2022-12-07T15:40:13;8.00;99.90
28947;DHT22;16052;50.930;5.326;2022-12-07T15:42:39;7.30;99.90
28947;DHT22;16052;50.930;5.326;2022-12-07T15:45:07;7.30;99.90
28947;DHT22;16052;50.930;5.326;2022-12-07T15:47:41;7.20;99.90
28947;DHT22;16052;50.930;5.326;2022-12-07T15:50:10;7.10;99.90
28947;DHT22;16052;50.930;5.326;2022-12-07T15:52:35;7.10;99.90
28947;DHT22;16052;50.930;5.326;2022-12-07T15:55:02;6.90;99.90
28947;DHT22;16052;50.930;5.326;2022-12-07T15:57:32;6.70;99.90
28947;DHT22;16052;50.930;5.326;2022-12-07T15:59:58;6.60;99.90
28947;DHT22;16052;50.930;5.326;2022-12-07T16:02:24;6.60;99.90
28947;DHT22;16052;50.930;5.326;2022-12-07T16:04:51;6.70;99.90
28947;DHT22;16052;50.930;5.326;2022-12-07T16:07:17;6.70;99.90
28947;DHT22;16052;50.930;5.326;2022-12-07T16:09:43;6.80;99.90
28947;DHT22;16052;50.930;5.326;2022-12-07T16:12:10;7.00;99.90
28947;DHT22;16052;50.930;5.326;2022-12-07T16:14:36;6.90;99.90
28947;DHT22;16052;50.930;5.326;2022-12-07T16:17:02;6.80;99.90
28947;DHT22;16052;50.930;5.326;2022-12-07T16:19:30;6.70;99.90
28947;DHT22;16052;50.930;5.326;2022-12-07T16:21:55;6.70;99.90
28947;DHT22;16052;50.930;5.326;2022-12-07T16:24:21;6.70;99.90
28947;DHT22;16052;50.930;5.326;2022-12-07T16:26:49;6.60;99.90
28947;DHT22;16052;50.930;5.326;2022-12-07T16:29:15;6.60;99.90
28947;DHT22;16052;50.930;5.326;2022-12-07T16:31:42;6.90;99.90
28947;DHT22;16052;50.930;5.326;2022-12-07T16:34:10;6.60;99.90
28947;DHT22;16052;50.930;5.326;2022-12-07T16:36:36;6.60;99.90
28947;DHT22;16052;50.930;5.326;2022-12-07T16:39:02;6.60;99.90
28947;DHT22;16052;50.930;5.326;2022-12-07T16:41:28;6.60;99.90
28947;DHT22;16052;50.930;5.326;2022-12-07T16:43:53;6.50;99.90
28947;DHT22;16052;50.930;5.326;2022-12-07T16:46:19;6.60;99.90
28947;DHT22;16052;50.930;5.326;2022-12-07T16:48:45;6.70;99.90
28947;DHT22;16052;50.930;5.326;2022-12-07T16:51:12;6.60;99.90
28947;DHT22;16052;50.930;5.326;2022-12-07T16:53:40;6.60;99.90
28947;DHT22;16052;50.930;5.326;2022-12-07T16:56:11;6.50;99.90
28947;DHT22;16052;50.930;5.326;2022-12-07T16:58:37;6.40;99.90
28947;DHT22;16052;50.930;5.326;2022-12-07T17:01:13;6.40;99.90
28947;DHT22;16052;50.930;5.326;2022-12-07T17:03:39;6.40;99.90
28947;DHT22;16052;50.930;5.326;2022-12-07T17:06:12;6.50;99.90
28947;DHT22;16052;50.930;5.326;2022-12-07T17:08:38;6.50;99.90
28947;DHT22;16052;50.930;5.326;2022-12-07T17:11:10;6.60;99.90
28947;DHT22;16052;50.930;5.326;2022-12-07T17:13:36;6.40;99.90
28947;DHT22;16052;50.930;5.326;2022-12-07T17:16:20;6.40;99.90
28947;DHT22;16052;50.930;5.326;2022-12-07T17:18:46;6.40;99.90
28947;DHT22;16052;50.930;5.326;2022-12-07T17:21:11;6.30;99.90
28947;DHT22;16052;50.930;5.326;2022-12-07T17:23:37;6.20;99.90
28947;DHT22;16052;50.930;5.326;2022-12-07T17:26:14;6.10;99.90
28947;DHT22;16052;50.930;5.326;2022-12-07T17:28:41;6.10;99.90
28947;DHT22;16052;50.930;5.326;2022-12-07T17:31:09;6.10;99.90
28947;DHT22;16052;50.930;5.326;2022-12-07T17:33:36;6.20;99.90
28947;DHT22;16052;50.930;5.326;2022-12-07T17:36:11;6.20;99.90
28947;DHT22;16052;50.930;5.326;2022-12-07T17:38:38;6.20;99.90
28947;DHT22;16052;50.930;5.326;2022-12-07T17:41:11;6.30;99.90
28947;DHT22;16052;50.930;5.326;2022-12-07T17:43:37;6.20;99.90
28947;DHT22;16052;50.930;5.326;2022-12-07T17:46:08;6.20;99.90
28947;DHT22;16052;50.930;5.326;2022-12-07T17:48:33;6.20;99.90
28947;DHT22;16052;50.930;5.326;2022-12-07T17:51:00;6.30;99.90
28947;DHT22;16052;50.930;5.326;2022-12-07T17:53:47;6.40;99.90
28947;DHT22;16052;50.930;5.326;2022-12-07T17:56:12;6.40;99.90
28947;DHT22;16052;50.930;5.326;2022-12-07T17:58:38;6.40;99.90
28947;DHT22;16052;50.930;5.326;2022-12-07T18:01:08;6.60;99.90
28947;DHT22;16052;50.930;5.326;2022-12-07T18:03:34;6.30;99.90
28947;DHT22;16052;50.930;5.326;2022-12-07T18:06:00;6.20;99.90
28947;DHT22;16052;50.930;5.326;2022-12-07T18:08:25;6.20;99.90